aviador You're here:

SBFZ Decoded Metar

FORTALEZA in BRAZIL
Report Time2018-07-22 15:00:00
UTC Time2018-07-22 15:57:12
Flight Rules vfr VFR
Wind080° at 12 kt
W.Decomp.*RWY 13: 10.5 kt HW 5.8 kt LCW
W.Rank080° ranks 2
Current wind is above 080° avg. (10.5)
Visibility9999 m
Phenomena:N/A
Clouds:Scattered 025 Hf
Broken 100 Hf
Expected CloudBase > 3,200 ft AGL from Temp-Dew spread
Ceiling10,000 ft
Temp30°C (ISA +15)
Dew Point22°C (62% RH)
Heat Index33.2°C
QNH1013 hPa
Density Alt2,169 ft
Elevation82 ft
Report Wrong Elevation
Raw Report
METAR SBFZ 221500Z 08012KT 9999 SCT025 BKN100 30/22 Q1013=

Extra information for SBFZ:More info

Metar Taf Metar & Taf Last 4 Metars F.Rules Stats Wind Profile Meteogram Temp Stats Airport Information Weather charts Add Link Nearby VenuesMetar ALERT Operation Metar Decoded Social comments